TOURFACTS.DK  
Stats and Facts from Tour de France.

Tour de France 2019 starts in 347 days
  Riders   Stages   Teams   Summits   Yearly  


 
Search by year

After 2018 - Stage 14:
 15000 starters.
  5163 different riders.
  639 teams.
  2246 stages.
  456 restdays.
  441957.60 km.
  5678 abandonnees.


Top 3
GC
Christopher Froome86:20:55
Rigoberto Urán86:21:49
Romain Bardet86:23:15
Climb
Warren Barguil169 pt.
Primoz Roglic80 pt.
Thomas De Gendt64 pt.
Sprint
Michael Matthews359 pt.
André Greipel234 pt.
Edvald Boasson Hagen220 pt.
Youth
Simon Yates86:27:09
Louis Meintjes86:29:15
Emanuel Buchmann86:54:16
Facts from Tour de France 1974
  |   Stages.  |   Stage winners.  |   Days in yellow  |   Average speed.  |   Route.  |   Teams.  |   All riders.  |   Rookies.  |  

  |   Withdrawls.  |   GC.  |   Polka  |   Green  |   White  |   Summits. (In tour)  |   Miscellaneous.  |  

Stage 15 on July 14th. 1974
         Owning:    Eddy Merckx    
Pick a stage:  Pro 1 2 3 4 5 6a 6b 7 8a 8b 9 10 11 12 13 14 15 16 17 18 19a 19b 20 21a 21b 22
From: Colomiers    To: La Seu-d´UrgellDist:225.00 km.
Cat: 4Côte du Pas du PortelESPDomingo Perurena
5 points
 
Cat: 1Port d'EnvaliraFRARaymond Delisle
12 points
 

Average speed for all riders in stage:  32,753 km./hr.
    Place:Name:Team:Time:Km/h:
BELEddy MerckxITAMolteni06:42:29  +  00:00:00=33,542 
ESPMariano MartinezFRASonolor-Gitanes06:42:29  +  00:00:00=33,542 
BELMichel PollentierBELCarpenter Confortluxe-Flandria06:42:29  +  00:00:00=33,542 
4 ITAWladimiro PanizzaITABrooklyn06:42:29  +  00:00:00=33,542 
5 ESPVicente LopezESPKas-Kaskol06:42:29  +  00:00:00=33,542 
6 ESPGonzalo AjaESPKas-Kaskol06:42:29  +  00:00:00=33,542 
7 BELLucien Van ImpeFRASonolor-Gitanes06:42:29  +  00:00:00=33,542 
8 ITAFausto BertoglioITABrooklyn06:42:29  +  00:00:00=33,542 
9 FRARaymond DelisleFRAPeugeot-BP-Michelin06:42:29  +  00:00:00=33,542 
10 PORJoaquim AgostinhoFRABic06:42:29  +  00:00:00=33,542 
11 ESPFrancisco GaldosESPKas-Kaskol06:42:29  +  00:00:00=33,542 
12 ESPJuan ZuranoESPLa Casera-Peña Bahamontes06:42:29  +  00:00:00=33,542 
13 FRARaymond PoulidorFRAGan-Mercier-Hutchinson06:42:29  +  00:00:00=33,542 
14 ESPMiguel LasaESPKas-Kaskol06:42:29  +  00:00:00=33,542 
15 BELHerman Van SpringelBELMic-De Gribaldy-Ludo06:42:29  +  00:00:00=33,542 
16 FRAMichel PerinFRAGan-Mercier-Hutchinson06:44:03  +  00:01:34=33,412 
17 FRABernard LabourdetteFRABic06:44:03  +  00:01:34=33,412 
18 ESPAndrês OlivaESPLa Casera-Peña Bahamontes06:44:03  +  00:01:34=33,412 
19 BELWilly Van NesteFRASonolor-Gitanes06:44:03  +  00:01:34=33,412 
20 BELJoseph BruyereITAMolteni06:44:03  +  00:01:34=33,412 
21 ESPAndré RomeroFRAJobo-Lejeune06:44:03  +  00:01:34=33,412 
22 ESPJosé PesarrodonaESPKas-Kaskol06:44:03  +  00:01:34=33,412 
23 ITAGiancarlo BelliniITABrooklyn06:44:03  +  00:01:34=33,412 
24 BELEduard JanssensITAMolteni06:44:03  +  00:01:34=33,412 
25 NEDGerard VianenFRAGan-Mercier-Hutchinson06:47:21  +  00:04:52=33,141 
26 BELJos De SchoenmaeckerITAMolteni06:47:24  +  00:04:55=33,137 
27 BELMarc DemeyerBELCarpenter Confortluxe-Flandria06:47:40  +  00:05:11=33,115 
28 NEDGerrie KnetemannFRAGan-Mercier-Hutchinson06:47:41  +  00:05:12=33,114 
29 FRAFrancis CampanerFRAJobo-Lejeune06:47:42  +  00:05:13=33,113 
30 BELRonny VanmarckeBELMic-De Gribaldy-Ludo06:47:42  +  00:05:13=33,113 
31 FRARégis OvionFRAPeugeot-BP-Michelin06:47:42  +  00:05:13=33,113 
32 BELGeorges PintensBELMic-De Gribaldy-Ludo06:47:42  +  00:05:13=33,113 
33 ESPJosé AbilleiraESPLa Casera-Peña Bahamontes06:47:42  +  00:05:13=33,113 
34 ESPJesus ManzanequeESPLa Casera-Peña Bahamontes06:47:42  +  00:05:13=33,113 
35 BELJoseph HuysmansITAMolteni06:47:42  +  00:05:13=33,113 
36 BELMarc LievensITAMolteni06:47:42  +  00:05:13=33,113 
37 FRAAndré MolletFRAPeugeot-BP-Michelin06:47:42  +  00:05:13=33,113 
38 ENGMichael WrightFRASonolor-Gitanes06:47:42  +  00:05:13=33,113 
39 FRAJoël MillardFRAMerlin Plage-Flandria06:47:42  +  00:05:13=33,113 
40 BELJan Van De WieleBELMic-De Gribaldy-Ludo06:47:42  +  00:05:13=33,113 
41 FRARoger PingeonFRAJobo-Lejeune06:47:42  +  00:05:13=33,113 
42 NEDFedor Iwan Den HertogNLDFrisol-Flair Plastics06:47:42  +  00:05:13=33,113 
43 ESPDomingo PerurenaESPKas-Kaskol06:47:42  +  00:05:13=33,113 
44 FRAAlain SantyFRAGan-Mercier-Hutchinson06:47:42  +  00:05:13=33,113 
45 ITAArturo PecchielanITABrooklyn06:47:42  +  00:05:13=33,113 
46 BELWilly TeirlinckFRASonolor-Gitanes06:50:35  +  00:08:06=32,880 
47 NEDGerben KarstensFRABic06:50:35  +  00:08:06=32,880 
48 ENGBarry HobanFRAGan-Mercier-Hutchinson06:50:35  +  00:08:06=32,880 
49 FRAJean-Claude MisacFRAMerlin Plage-Flandria06:50:35  +  00:08:06=32,880 
50 FRABernard BourreauFRAPeugeot-BP-Michelin06:50:35  +  00:08:06=32,880 
51 FRARoland BerlandFRABic06:50:35  +  00:08:06=32,880 
52 BELRonald De WitteBELCarpenter Confortluxe-Flandria06:50:35  +  00:08:06=32,880 
53 ESPAntonio MenendezESPKas-Kaskol06:50:35  +  00:08:06=32,880 
54 BELVictor Van SchilITAMolteni06:50:35  +  00:08:06=32,880 
55 NEDWim PrinsenNLDFrisol-Flair Plastics06:50:35  +  00:08:06=32,880 
56 FRAJosé CatieauFRABic06:50:35  +  00:08:06=32,880 
57 FRAAlain NoguesFRASonolor-Gitanes06:50:35  +  00:08:06=32,880 
58 FRAFerdinand JulienFRASonolor-Gitanes06:50:35  +  00:08:06=32,880 
59 FRAJean-Pierre DanguillaumeFRAPeugeot-BP-Michelin06:50:35  +  00:08:06=32,880 
60 ESPDamaso TorresESPLa Casera-Peña Bahamontes06:50:35  +  00:08:06=32,880 
61 COLAntonio MartosESPKas-Kaskol06:50:35  +  00:08:06=32,880 
62 FRACyrille GuimardFRAMerlin Plage-Flandria06:56:04  +  00:13:35=32,447 
63 FRAChristian RaymondFRAGan-Mercier-Hutchinson06:56:04  +  00:13:35=32,447 
64 ESPLuis ZuberoESPKas-Kaskol06:56:39  +  00:14:10=32,401 
65 NEDPiet Van KatwijkNLDFrisol-Flair Plastics06:56:39  +  00:14:10=32,401 
66 NEDHenk PrinsenNLDFrisol-Flair Plastics06:56:39  +  00:14:10=32,401 
67 FRAJean-Pierre GuillemotFRAJobo-Lejeune06:56:39  +  00:14:10=32,401 
68 FRARobert MintkiewiczFRASonolor-Gitanes06:56:39  +  00:14:10=32,401 
69 BELDirk BaertBELMic-De Gribaldy-Ludo06:56:39  +  00:14:10=32,401 
70 BELNoël VancloosterBELMic-De Gribaldy-Ludo06:56:39  +  00:14:10=32,401 
71 FRAJean-Jacques SanquerFRAMerlin Plage-Flandria06:56:39  +  00:14:10=32,401 
72 BELLudo DelcroixITAMolteni06:56:39  +  00:14:10=32,401 
73 BELPatrick SercuITABrooklyn06:56:39  +  00:14:10=32,401 
74 BELGustaaf Van RoosbroeckBELMic-De Gribaldy-Ludo06:56:39  +  00:14:10=32,401 
75 FRAJacques BotherelFRASonolor-Gitanes06:56:39  +  00:14:10=32,401 
76 FRACharly RouxelFRAPeugeot-BP-Michelin06:56:39  +  00:14:10=32,401 
77 BELWilfried WesemaelBELMic-De Gribaldy-Ludo06:56:39  +  00:14:10=32,401 
78 FRAGuy SibilleFRAPeugeot-BP-Michelin06:56:39  +  00:14:10=32,401 
79 BELFrans MintjensITAMolteni06:56:39  +  00:14:10=32,401 
80 NEDCees BalFRAGan-Mercier-Hutchinson06:56:39  +  00:14:10=32,401 
81 FRARaymond RiotteFRAPeugeot-BP-Michelin06:56:39  +  00:14:10=32,401 
82 FRAJean-Luc MolinerisFRABic06:56:39  +  00:14:10=32,401 
83 FRAJean-Pierre GenetFRAGan-Mercier-Hutchinson06:56:39  +  00:14:10=32,401 
84 FRAAlain VasseurFRABic06:56:39  +  00:14:10=32,401 
85 FRASylvain VasseurFRABic06:56:39  +  00:14:10=32,401 
86 FRAJacky MouriouxFRAGan-Mercier-Hutchinson06:56:39  +  00:14:10=32,401 
87 BELJoseph SpruytITAMolteni06:56:39  +  00:14:10=32,401 
88 FRADaniel RebillardFRAMerlin Plage-Flandria07:00:40  +  00:18:11=32,092 
89 ESPCarlos MeleroESPKas-Kaskol07:00:40  +  00:18:11=32,092 
90 ITAValerio LualdiITABrooklyn07:00:40  +  00:18:11=32,092 
91 BELFrans Van LooyBELCarpenter Confortluxe-Flandria07:00:40  +  00:18:11=32,092 
92 ITAGianni Di LorenzoITABrooklyn07:00:40  +  00:18:11=32,092 
93 BELArthur Van de VyverBELCarpenter Confortluxe-Flandria07:00:40  +  00:18:11=32,092 
94 FRAJacques EsclassanFRAPeugeot-BP-Michelin07:00:40  +  00:18:11=32,092 
95 FRARegis DelepineFRAMerlin Plage-Flandria07:00:40  +  00:18:11=32,092 
96 FRAChristian BlainFRAJobo-Lejeune07:00:40  +  00:18:11=32,092 
97 FRABernard MassonFRAJobo-Lejeune07:00:40  +  00:18:11=32,092 
98 FRAClaude MagniFRAJobo-Lejeune07:00:40  +  00:18:11=32,092 
99 AUSDonald AllanNLDFrisol-Flair Plastics07:00:40  +  00:18:11=32,092 
100 FRAAlain CiganaFRAJobo-Lejeune07:00:40  +  00:18:11=32,092 
101 BELDaniel VerplanckeBELCarpenter Confortluxe-Flandria07:00:40  +  00:18:11=32,092 
102 BELAndré DierickxFRAMerlin Plage-Flandria07:00:40  +  00:18:11=32,092 
103 FRABernard CroyetFRABic07:00:40  +  00:18:11=32,092 
104 FRAMichel CorollerFRAMerlin Plage-Flandria07:00:40  +  00:18:11=32,092 
105 FRAGerard MoneyronFRAMerlin Plage-Flandria07:00:40  +  00:18:11=32,092 
106 FRADaniel DucreuxFRAJobo-Lejeune07:00:40  +  00:18:11=32,092 
107 ITAAldo ParecchiniITABrooklyn07:07:18  +  00:24:49=31,594 
108 ITALorenzo AlaimoNLDFrisol-Flair Plastics07:08:52  +  00:26:23=31,478 
109 FRAJean-Claude BlocherFRAJobo-Lejeune07:14:18  +  00:31:49=31,085 

Withdrawls: 1
 
Rider
Team
Reason
18  DENLeif MortensenFRABicDid not start

Todays birthdays.

1887  Donald Kirkham
1889  Théodore Abada
1911  Guillaume Chavard
1912  Jean Fontenay
1913  Fabien Galateau
1930  Roger Hassenforder
1930  Richard Van Genechten
1936  Philippe Gaudrillet
1937  Joseph Novales
1954  Hans-Peter Jakst
1960  Manuel Ramos
1973  David Etxebarria
1974  Rik Verbrugghe
1976  Jörg Jaksche




Visits: